sensor_id;sensor_type;location;lat;lon;timestamp;temperature;humidity
2973;DHT22;1496;51.404;7.232;2023-02-26T00:01:30;1.20;99.90
2973;DHT22;1496;51.404;7.232;2023-02-26T00:03:59;1.20;99.90
2973;DHT22;1496;51.404;7.232;2023-02-26T00:06:28;1.10;99.90
2973;DHT22;1496;51.404;7.232;2023-02-26T00:08:58;1.00;99.90
2973;DHT22;1496;51.404;7.232;2023-02-26T00:11:26;1.00;99.90
2973;DHT22;1496;51.404;7.232;2023-02-26T00:13:53;1.00;99.90
2973;DHT22;1496;51.404;7.232;2023-02-26T00:16:32;0.90;99.90
2973;DHT22;1496;51.404;7.232;2023-02-26T00:19:03;0.90;99.90
2973;DHT22;1496;51.404;7.232;2023-02-26T00:21:31;0.90;99.90
2973;DHT22;1496;51.404;7.232;2023-02-26T00:23:59;0.90;99.90
2973;DHT22;1496;51.404;7.232;2023-02-26T00:26:29;0.90;99.90
2973;DHT22;1496;51.404;7.232;2023-02-26T00:28:57;0.90;99.90
2973;DHT22;1496;51.404;7.232;2023-02-26T00:31:25;0.90;99.90
2973;DHT22;1496;51.404;7.232;2023-02-26T00:33:54;0.90;99.90
2973;DHT22;1496;51.404;7.232;2023-02-26T00:39:43;0.80;99.90
2973;DHT22;1496;51.404;7.232;2023-02-26T00:42:16;0.90;99.90
2973;DHT22;1496;51.404;7.232;2023-02-26T00:44:44;0.90;99.90
2973;DHT22;1496;51.404;7.232;2023-02-26T00:50:21;0.90;99.90
2973;DHT22;1496;51.404;7.232;2023-02-26T00:55:48;0.80;99.90
2973;DHT22;1496;51.404;7.232;2023-02-26T00:58:15;0.80;99.90
2973;DHT22;1496;51.404;7.232;2023-02-26T01:00:42;0.90;99.90
2973;DHT22;1496;51.404;7.232;2023-02-26T01:03:09;0.90;99.90
2973;DHT22;1496;51.404;7.232;2023-02-26T01:05:37;1.00;99.90
2973;DHT22;1496;51.404;7.232;2023-02-26T01:08:18;1.00;99.90
2973;DHT22;1496;51.404;7.232;2023-02-26T01:10:48;1.00;99.90
2973;DHT22;1496;51.404;7.232;2023-02-26T01:13:17;1.00;99.90
2973;DHT22;1496;51.404;7.232;2023-02-26T01:15:49;1.00;99.90
2973;DHT22;1496;51.404;7.232;2023-02-26T01:18:25;0.90;99.90
2973;DHT22;1496;51.404;7.232;2023-02-26T01:20:59;0.90;99.90
2973;DHT22;1496;51.404;7.232;2023-02-26T01:23:32;1.00;99.90
2973;DHT22;1496;51.404;7.232;2023-02-26T01:26:05;1.00;99.90
2973;DHT22;1496;51.404;7.232;2023-02-26T01:28:37;1.00;99.90
2973;DHT22;1496;51.404;7.232;2023-02-26T01:31:06;1.10;99.90
2973;DHT22;1496;51.404;7.232;2023-02-26T01:33:45;1.10;99.90
2973;DHT22;1496;51.404;7.232;2023-02-26T01:36:19;1.10;99.90
2973;DHT22;1496;51.404;7.232;2023-02-26T01:39:38;1.00;99.90
2973;DHT22;1496;51.404;7.232;2023-02-26T01:42:12;1.00;99.90
2973;DHT22;1496;51.404;7.232;2023-02-26T01:45:00;1.10;99.90
2973;DHT22;1496;51.404;7.232;2023-02-26T01:48:10;1.00;99.90
2973;DHT22;1496;51.404;7.232;2023-02-26T01:50:38;0.90;99.90
2973;DHT22;1496;51.404;7.232;2023-02-26T01:53:25;0.80;99.90
2973;DHT22;1496;51.404;7.232;2023-02-26T01:55:59;0.80;99.90
2973;DHT22;1496;51.404;7.232;2023-02-26T01:58:33;0.80;99.90
2973;DHT22;1496;51.404;7.232;2023-02-26T02:01:00;0.70;99.90
2973;DHT22;1496;51.404;7.232;2023-02-26T02:03:28;0.70;99.90
2973;DHT22;1496;51.404;7.232;2023-02-26T02:06:17;0.70;99.90
2973;DHT22;1496;51.404;7.232;2023-02-26T02:08:44;0.70;99.90
2973;DHT22;1496;51.404;7.232;2023-02-26T02:11:12;0.60;99.90
2973;DHT22;1496;51.404;7.232;2023-02-26T02:25:25;0.60;99.90
2973;DHT22;1496;51.404;7.232;2023-02-26T02:28:05;0.60;99.90
2973;DHT22;1496;51.404;7.232;2023-02-26T02:37:15;0.50;99.90
2973;DHT22;1496;51.404;7.232;2023-02-26T02:40:18;0.50;99.90
2973;DHT22;1496;51.404;7.232;2023-02-26T02:43:05;0.40;99.90
2973;DHT22;1496;51.404;7.232;2023-02-26T02:48:30;0.40;99.90
2973;DHT22;1496;51.404;7.232;2023-02-26T02:51:23;0.50;99.90
2973;DHT22;1496;51.404;7.232;2023-02-26T02:59:50;0.50;99.90
2973;DHT22;1496;51.404;7.232;2023-02-26T03:05:18;0.40;99.90
2973;DHT22;1496;51.404;7.232;2023-02-26T03:08:16;0.40;99.90
2973;DHT22;1496;51.404;7.232;2023-02-26T03:10:41;0.40;99.90
2973;DHT22;1496;51.404;7.232;2023-02-26T03:13:20;0.50;99.90
2973;DHT22;1496;51.404;7.232;2023-02-26T03:21:28;0.40;99.90
2973;DHT22;1496;51.404;7.232;2023-02-26T03:26:47;0.40;99.90
2973;DHT22;1496;51.404;7.232;2023-02-26T03:29:35;0.40;99.90
2973;DHT22;1496;51.404;7.232;2023-02-26T03:32:10;0.40;99.90
2973;DHT22;1496;51.404;7.232;2023-02-26T03:34:47;0.30;99.90
2973;DHT22;1496;51.404;7.232;2023-02-26T03:37:25;0.30;99.90
2973;DHT22;1496;51.404;7.232;2023-02-26T03:39:57;0.30;99.90
2973;DHT22;1496;51.404;7.232;2023-02-26T03:42:29;0.40;99.90
2973;DHT22;1496;51.404;7.232;2023-02-26T03:45:13;0.30;99.90
2973;DHT22;1496;51.404;7.232;2023-02-26T03:47:45;0.30;99.90
2973;DHT22;1496;51.404;7.232;2023-02-26T03:53:37;0.30;99.90
2973;DHT22;1496;51.404;7.232;2023-02-26T03:56:26;0.40;99.90
2973;DHT22;1496;51.404;7.232;2023-02-26T03:59:18;0.30;99.90
2973;DHT22;1496;51.404;7.232;2023-02-26T04:02:16;0.20;99.90
2973;DHT22;1496;51.404;7.232;2023-02-26T04:04:52;0.10;99.90
2973;DHT22;1496;51.404;7.232;2023-02-26T04:07:21;0.10;99.90
2973;DHT22;1496;51.404;7.232;2023-02-26T04:09:50;0.10;99.90
2973;DHT22;1496;51.404;7.232;2023-02-26T04:12:25;0.10;99.90
2973;DHT22;1496;51.404;7.232;2023-02-26T04:14:55;0.00;99.90
2973;DHT22;1496;51.404;7.232;2023-02-26T04:17:26;0.00;99.90
2973;DHT22;1496;51.404;7.232;2023-02-26T04:19:53;0.00;99.90
2973;DHT22;1496;51.404;7.232;2023-02-26T04:22:21;0.10;99.90
2973;DHT22;1496;51.404;7.232;2023-02-26T04:24:48;0.10;99.90
2973;DHT22;1496;51.404;7.232;2023-02-26T04:27:17;0.10;99.90
2973;DHT22;1496;51.404;7.232;2023-02-26T04:29:43;0.00;99.90
2973;DHT22;1496;51.404;7.232;2023-02-26T04:32:10;0.00;99.90
2973;DHT22;1496;51.404;7.232;2023-02-26T04:34:37;0.00;99.90
2973;DHT22;1496;51.404;7.232;2023-02-26T04:37:05;-0.10;99.90
2973;DHT22;1496;51.404;7.232;2023-02-26T04:39:32;0.00;99.90
2973;DHT22;1496;51.404;7.232;2023-02-26T04:42:03;0.00;99.90
2973;DHT22;1496;51.404;7.232;2023-02-26T04:44:30;0.00;99.90
2973;DHT22;1496;51.404;7.232;2023-02-26T04:46:59;0.00;99.90
2973;DHT22;1496;51.404;7.232;2023-02-26T04:49:28;-0.10;99.90
2973;DHT22;1496;51.404;7.232;2023-02-26T04:51:57;0.00;99.90
2973;DHT22;1496;51.404;7.232;2023-02-26T04:54:24;-0.10;99.90
2973;DHT22;1496;51.404;7.232;2023-02-26T04:56:51;-0.10;99.90
2973;DHT22;1496;51.404;7.232;2023-02-26T04:59:18;-0.10;99.90
2973;DHT22;1496;51.404;7.232;2023-02-26T05:01:45;-0.10;99.90
2973;DHT22;1496;51.404;7.232;2023-02-26T05:04:11;-0.10;99.90
2973;DHT22;1496;51.404;7.232;2023-02-26T05:06:40;-0.10;99.90
2973;DHT22;1496;51.404;7.232;2023-02-26T05:09:07;-0.10;99.90
2973;DHT22;1496;51.404;7.232;2023-02-26T05:11:33;-0.20;99.90
2973;DHT22;1496;51.404;7.232;2023-02-26T05:14:00;-0.30;99.90
2973;DHT22;1496;51.404;7.232;2023-02-26T05:16:26;-0.30;99.90
2973;DHT22;1496;51.404;7.232;2023-02-26T05:18:53;-0.30;99.90
2973;DHT22;1496;51.404;7.232;2023-02-26T05:21:20;-0.30;99.90
2973;DHT22;1496;51.404;7.232;2023-02-26T05:23:47;-0.20;99.90
2973;DHT22;1496;51.404;7.232;2023-02-26T05:26:16;-0.30;99.90
2973;DHT22;1496;51.404;7.232;2023-02-26T05:28:43;-0.20;99.90
2973;DHT22;1496;51.404;7.232;2023-02-26T05:31:15;-0.30;99.90
2973;DHT22;1496;51.404;7.232;2023-02-26T05:33:41;-0.30;99.90
2973;DHT22;1496;51.404;7.232;2023-02-26T05:36:08;-0.40;99.90
2973;DHT22;1496;51.404;7.232;2023-02-26T05:38:37;-0.40;99.90
2973;DHT22;1496;51.404;7.232;2023-02-26T05:41:03;-0.30;99.90
2973;DHT22;1496;51.404;7.232;2023-02-26T05:43:30;-0.30;99.90
2973;DHT22;1496;51.404;7.232;2023-02-26T05:45:56;-0.40;99.90
2973;DHT22;1496;51.404;7.232;2023-02-26T05:48:24;-0.40;99.90
2973;DHT22;1496;51.404;7.232;2023-02-26T05:50:51;-0.50;99.90
2973;DHT22;1496;51.404;7.232;2023-02-26T05:53:18;-0.40;99.90
2973;DHT22;1496;51.404;7.232;2023-02-26T05:55:45;-0.50;99.90
2973;DHT22;1496;51.404;7.232;2023-02-26T05:58:11;-0.50;99.90
2973;DHT22;1496;51.404;7.232;2023-02-26T06:00:38;-0.50;99.90
2973;DHT22;1496;51.404;7.232;2023-02-26T06:03:06;-0.50;99.90
2973;DHT22;1496;51.404;7.232;2023-02-26T06:05:32;-0.50;99.90
2973;DHT22;1496;51.404;7.232;2023-02-26T06:08:01;-0.40;99.90
2973;DHT22;1496;51.404;7.232;2023-02-26T06:10:28;-0.50;99.90
2973;DHT22;1496;51.404;7.232;2023-02-26T06:12:55;-0.50;99.90
2973;DHT22;1496;51.404;7.232;2023-02-26T06:15:21;-0.40;99.90
2973;DHT22;1496;51.404;7.232;2023-02-26T06:17:48;-0.40;99.90
2973;DHT22;1496;51.404;7.232;2023-02-26T06:20:14;-0.60;99.90
2973;DHT22;1496;51.404;7.232;2023-02-26T06:22:42;-0.70;99.90
2973;DHT22;1496;51.404;7.232;2023-02-26T06:25:10;-0.60;99.90
2973;DHT22;1496;51.404;7.232;2023-02-26T06:27:37;-0.60;99.90
2973;DHT22;1496;51.404;7.232;2023-02-26T06:30:04;-0.70;99.90
2973;DHT22;1496;51.404;7.232;2023-02-26T06:32:31;-0.70;99.90
2973;DHT22;1496;51.404;7.232;2023-02-26T06:35:00;-0.70;99.90
2973;DHT22;1496;51.404;7.232;2023-02-26T06:37:28;-0.70;99.90
2973;DHT22;1496;51.404;7.232;2023-02-26T06:39:54;-0.70;99.90
2973;DHT22;1496;51.404;7.232;2023-02-26T06:42:22;-0.70;99.90
2973;DHT22;1496;51.404;7.232;2023-02-26T06:44:48;-0.60;99.90
2973;DHT22;1496;51.404;7.232;2023-02-26T06:47:16;-0.70;99.90
2973;DHT22;1496;51.404;7.232;2023-02-26T06:49:42;-0.70;99.90
2973;DHT22;1496;51.404;7.232;2023-02-26T06:52:09;-0.70;99.90
2973;DHT22;1496;51.404;7.232;2023-02-26T06:54:36;-0.70;99.90
2973;DHT22;1496;51.404;7.232;2023-02-26T06:57:03;-0.70;99.90
2973;DHT22;1496;51.404;7.232;2023-02-26T06:59:31;-0.60;99.90
2973;DHT22;1496;51.404;7.232;2023-02-26T07:01:58;-0.60;99.90
2973;DHT22;1496;51.404;7.232;2023-02-26T07:04:26;-0.70;99.90
2973;DHT22;1496;51.404;7.232;2023-02-26T07:06:52;-0.70;99.90
2973;DHT22;1496;51.404;7.232;2023-02-26T07:09:18;-0.80;99.90
2973;DHT22;1496;51.404;7.232;2023-02-26T07:11:45;-0.70;99.90
2973;DHT22;1496;51.404;7.232;2023-02-26T07:14:11;-0.70;99.90
2973;DHT22;1496;51.404;7.232;2023-02-26T07:16:37;-0.80;99.90
2973;DHT22;1496;51.404;7.232;2023-02-26T07:19:05;-0.80;99.90
2973;DHT22;1496;51.404;7.232;2023-02-26T07:21:32;-0.60;99.90
2973;DHT22;1496;51.404;7.232;2023-02-26T07:23:58;-0.70;99.90
2973;DHT22;1496;51.404;7.232;2023-02-26T07:26:24;-0.60;99.90
2973;DHT22;1496;51.404;7.232;2023-02-26T07:28:52;-0.60;99.90
2973;DHT22;1496;51.404;7.232;2023-02-26T07:31:19;-0.70;99.90
2973;DHT22;1496;51.404;7.232;2023-02-26T07:33:47;-0.70;99.90
2973;DHT22;1496;51.404;7.232;2023-02-26T07:36:14;-0.60;99.90
2973;DHT22;1496;51.404;7.232;2023-02-26T07:38:42;-0.60;99.90
2973;DHT22;1496;51.404;7.232;2023-02-26T07:41:10;-0.60;99.90
2973;DHT22;1496;51.404;7.232;2023-02-26T07:43:37;-0.50;99.90
2973;DHT22;1496;51.404;7.232;2023-02-26T07:46:04;-0.50;99.90
2973;DHT22;1496;51.404;7.232;2023-02-26T07:48:31;-0.50;99.90
2973;DHT22;1496;51.404;7.232;2023-02-26T07:50:57;-0.50;99.90
2973;DHT22;1496;51.404;7.232;2023-02-26T07:53:24;-0.40;99.90
2973;DHT22;1496;51.404;7.232;2023-02-26T07:55:51;-0.40;99.90
2973;DHT22;1496;51.404;7.232;2023-02-26T07:58:19;-0.40;99.90
2973;DHT22;1496;51.404;7.232;2023-02-26T08:00:46;-0.40;99.90
2973;DHT22;1496;51.404;7.232;2023-02-26T08:03:14;-0.50;99.90
2973;DHT22;1496;51.404;7.232;2023-02-26T08:05:40;-0.40;99.90
2973;DHT22;1496;51.404;7.232;2023-02-26T08:08:07;-0.20;99.90
2973;DHT22;1496;51.404;7.232;2023-02-26T08:10:33;-0.20;99.90
2973;DHT22;1496;51.404;7.232;2023-02-26T08:13:01;-0.20;99.90
2973;DHT22;1496;51.404;7.232;2023-02-26T08:15:27;-0.10;99.90
2973;DHT22;1496;51.404;7.232;2023-02-26T08:17:54;-0.20;99.90
2973;DHT22;1496;51.404;7.232;2023-02-26T08:20:22;-0.10;99.90
2973;DHT22;1496;51.404;7.232;2023-02-26T08:22:50;0.00;99.90
2973;DHT22;1496;51.404;7.232;2023-02-26T08:25:17;0.10;99.90
2973;DHT22;1496;51.404;7.232;2023-02-26T08:27:44;0.20;99.90
2973;DHT22;1496;51.404;7.232;2023-02-26T08:30:12;0.30;99.90
2973;DHT22;1496;51.404;7.232;2023-02-26T08:32:39;0.30;99.90
2973;DHT22;1496;51.404;7.232;2023-02-26T08:35:09;0.30;99.90
2973;DHT22;1496;51.404;7.232;2023-02-26T08:37:37;0.30;99.90
2973;DHT22;1496;51.404;7.232;2023-02-26T08:40:05;0.30;99.90
2973;DHT22;1496;51.404;7.232;2023-02-26T08:42:31;0.40;99.90
2973;DHT22;1496;51.404;7.232;2023-02-26T08:44:58;0.40;99.90
2973;DHT22;1496;51.404;7.232;2023-02-26T08:47:25;0.50;99.90
2973;DHT22;1496;51.404;7.232;2023-02-26T08:49:52;0.60;99.90
2973;DHT22;1496;51.404;7.232;2023-02-26T08:52:21;0.60;99.90
2973;DHT22;1496;51.404;7.232;2023-02-26T08:54:49;0.60;99.90
2973;DHT22;1496;51.404;7.232;2023-02-26T08:57:17;0.70;99.90
2973;DHT22;1496;51.404;7.232;2023-02-26T08:59:44;0.80;99.90
2973;DHT22;1496;51.404;7.232;2023-02-26T09:02:13;0.90;99.90
2973;DHT22;1496;51.404;7.232;2023-02-26T09:04:41;1.00;99.90
2973;DHT22;1496;51.404;7.232;2023-02-26T09:07:07;1.00;99.90
2973;DHT22;1496;51.404;7.232;2023-02-26T09:09:34;0.90;99.90
2973;DHT22;1496;51.404;7.232;2023-02-26T09:12:00;1.00;99.90
2973;DHT22;1496;51.404;7.232;2023-02-26T09:14:28;1.00;99.90
2973;DHT22;1496;51.404;7.232;2023-02-26T09:16:54;1.20;99.90
2973;DHT22;1496;51.404;7.232;2023-02-26T09:19:22;1.20;99.90
2973;DHT22;1496;51.404;7.232;2023-02-26T09:21:48;1.30;99.90
2973;DHT22;1496;51.404;7.232;2023-02-26T09:24:16;1.30;99.90
2973;DHT22;1496;51.404;7.232;2023-02-26T09:26:42;1.40;99.90
2973;DHT22;1496;51.404;7.232;2023-02-26T09:29:10;1.40;99.90
2973;DHT22;1496;51.404;7.232;2023-02-26T09:31:38;1.50;99.90
2973;DHT22;1496;51.404;7.232;2023-02-26T09:34:05;1.50;99.90
2973;DHT22;1496;51.404;7.232;2023-02-26T09:36:32;1.60;99.90
2973;DHT22;1496;51.404;7.232;2023-02-26T09:38:59;1.70;99.90
2973;DHT22;1496;51.404;7.232;2023-02-26T09:41:30;1.80;99.90
2973;DHT22;1496;51.404;7.232;2023-02-26T09:47:18;1.60;99.90
2973;DHT22;1496;51.404;7.232;2023-02-26T09:58:00;1.60;99.90
2973;DHT22;1496;51.404;7.232;2023-02-26T10:00:40;1.50;99.90
2973;DHT22;1496;51.404;7.232;2023-02-26T10:08:42;1.70;99.90
2973;DHT22;1496;51.404;7.232;2023-02-26T10:11:37;1.70;99.90
2973;DHT22;1496;51.404;7.232;2023-02-26T10:17:22;1.80;99.90
2973;DHT22;1496;51.404;7.232;2023-02-26T10:19:53;1.70;99.90
2973;DHT22;1496;51.404;7.232;2023-02-26T10:25:25;1.80;99.90
2973;DHT22;1496;51.404;7.232;2023-02-26T10:31:06;2.00;99.90
2973;DHT22;1496;51.404;7.232;2023-02-26T10:33:48;2.00;99.90
2973;DHT22;1496;51.404;7.232;2023-02-26T10:36:28;2.00;99.90
2973;DHT22;1496;51.404;7.232;2023-02-26T10:39:26;2.10;99.90
2973;DHT22;1496;51.404;7.232;2023-02-26T10:41:57;2.30;99.90
2973;DHT22;1496;51.404;7.232;2023-02-26T10:44:40;2.40;99.90
2973;DHT22;1496;51.404;7.232;2023-02-26T10:47:50;2.30;99.90
2973;DHT22;1496;51.404;7.232;2023-02-26T10:50:20;2.20;99.90
2973;DHT22;1496;51.404;7.232;2023-02-26T10:52:49;2.30;99.90
2973;DHT22;1496;51.404;7.232;2023-02-26T10:55:46;2.40;99.90
2973;DHT22;1496;51.404;7.232;2023-02-26T10:58:24;2.40;99.90
2973;DHT22;1496;51.404;7.232;2023-02-26T11:00:53;2.40;99.90
2973;DHT22;1496;51.404;7.232;2023-02-26T11:03:33;2.50;99.90
2973;DHT22;1496;51.404;7.232;2023-02-26T11:06:02;2.60;99.90
2973;DHT22;1496;51.404;7.232;2023-02-26T11:08:39;2.50;99.90
2973;DHT22;1496;51.404;7.232;2023-02-26T11:11:07;2.40;99.90
2973;DHT22;1496;51.404;7.232;2023-02-26T11:13:36;2.50;99.90
2973;DHT22;1496;51.404;7.232;2023-02-26T11:16:16;2.50;99.90
2973;DHT22;1496;51.404;7.232;2023-02-26T11:18:49;2.60;99.90
2973;DHT22;1496;51.404;7.232;2023-02-26T11:21:20;2.80;99.90
2973;DHT22;1496;51.404;7.232;2023-02-26T11:23:49;2.80;99.90
2973;DHT22;1496;51.404;7.232;2023-02-26T11:26:25;2.90;99.90
2973;DHT22;1496;51.404;7.232;2023-02-26T11:28:57;2.80;99.90
2973;DHT22;1496;51.404;7.232;2023-02-26T11:31:27;2.80;99.90
2973;DHT22;1496;51.404;7.232;2023-02-26T11:34:07;2.90;99.90
2973;DHT22;1496;51.404;7.232;2023-02-26T11:36:38;3.00;99.90
2973;DHT22;1496;51.404;7.232;2023-02-26T11:39:27;2.90;99.90
2973;DHT22;1496;51.404;7.232;2023-02-26T11:41:57;2.80;99.90
2973;DHT22;1496;51.404;7.232;2023-02-26T11:44:35;2.80;99.90
2973;DHT22;1496;51.404;7.232;2023-02-26T11:47:09;2.90;99.90
2973;DHT22;1496;51.404;7.232;2023-02-26T11:49:48;3.00;99.90
2973;DHT22;1496;51.404;7.232;2023-02-26T11:52:27;3.10;99.90
2973;DHT22;1496;51.404;7.232;2023-02-26T11:55:20;3.10;99.90
2973;DHT22;1496;51.404;7.232;2023-02-26T11:57:55;3.10;99.90
2973;DHT22;1496;51.404;7.232;2023-02-26T12:00:29;3.00;99.90
2973;DHT22;1496;51.404;7.232;2023-02-26T12:03:06;3.10;99.90
2973;DHT22;1496;51.404;7.232;2023-02-26T12:05:35;3.00;99.90
2973;DHT22;1496;51.404;7.232;2023-02-26T12:08:12;3.10;99.90
2973;DHT22;1496;51.404;7.232;2023-02-26T12:11:04;3.30;99.90
2973;DHT22;1496;51.404;7.232;2023-02-26T12:40:16;3.50;99.90
2973;DHT22;1496;51.404;7.232;2023-02-26T12:46:25;3.60;99.90
2973;DHT22;1496;51.404;7.232;2023-02-26T13:05:13;3.50;99.90
2973;DHT22;1496;51.404;7.232;2023-02-26T13:13:03;3.80;99.90
2973;DHT22;1496;51.404;7.232;2023-02-26T13:21:35;3.70;99.90
2973;DHT22;1496;51.404;7.232;2023-02-26T13:24:19;3.60;99.90
2973;DHT22;1496;51.404;7.232;2023-02-26T13:26:48;3.40;99.90
2973;DHT22;1496;51.404;7.232;2023-02-26T13:31:55;3.40;99.90
2973;DHT22;1496;51.404;7.232;2023-02-26T13:35:13;3.40;99.90
2973;DHT22;1496;51.404;7.232;2023-02-26T13:37:24;3.60;99.90
2973;DHT22;1496;51.404;7.232;2023-02-26T13:51:57;3.20;99.90
2973;DHT22;1496;51.404;7.232;2023-02-26T13:54:42;3.20;99.90
2973;DHT22;1496;51.404;7.232;2023-02-26T13:57:32;3.40;99.90
2973;DHT22;1496;51.404;7.232;2023-02-26T14:00:07;3.60;99.90
2973;DHT22;1496;51.404;7.232;2023-02-26T14:02:51;3.70;99.90
2973;DHT22;1496;51.404;7.232;2023-02-26T14:05:34;3.70;99.90
2973;DHT22;1496;51.404;7.232;2023-02-26T14:08:20;3.60;99.90
2973;DHT22;1496;51.404;7.232;2023-02-26T14:10:58;3.50;99.90
2973;DHT22;1496;51.404;7.232;2023-02-26T14:13:35;3.30;99.90
2973;DHT22;1496;51.404;7.232;2023-02-26T14:16:26;3.40;99.90
2973;DHT22;1496;51.404;7.232;2023-02-26T14:19:18;3.50;99.90
2973;DHT22;1496;51.404;7.232;2023-02-26T14:21:51;3.40;99.90
2973;DHT22;1496;51.404;7.232;2023-02-26T14:27:36;3.40;99.90
2973;DHT22;1496;51.404;7.232;2023-02-26T14:32:55;3.50;99.90
2973;DHT22;1496;51.404;7.232;2023-02-26T14:35:35;3.60;99.90
2973;DHT22;1496;51.404;7.232;2023-02-26T14:38:20;3.70;99.90
2973;DHT22;1496;51.404;7.232;2023-02-26T14:41:07;3.70;99.90
2973;DHT22;1496;51.404;7.232;2023-02-26T14:43:45;3.50;99.90
2973;DHT22;1496;51.404;7.232;2023-02-26T14:46:17;3.40;99.90
2973;DHT22;1496;51.404;7.232;2023-02-26T14:48:44;3.40;99.90
2973;DHT22;1496;51.404;7.232;2023-02-26T14:53:55;3.40;99.90
2973;DHT22;1496;51.404;7.232;2023-02-26T15:02:09;3.50;99.90
2973;DHT22;1496;51.404;7.232;2023-02-26T15:13:02;3.30;99.90
2973;DHT22;1496;51.404;7.232;2023-02-26T15:15:56;3.30;99.90
2973;DHT22;1496;51.404;7.232;2023-02-26T15:18:45;3.30;99.90
2973;DHT22;1496;51.404;7.232;2023-02-26T15:24:28;3.40;99.90
2973;DHT22;1496;51.404;7.232;2023-02-26T15:27:02;3.60;99.90
2973;DHT22;1496;51.404;7.232;2023-02-26T15:29:36;3.60;99.90
2973;DHT22;1496;51.404;7.232;2023-02-26T15:32:22;3.60;99.90
2973;DHT22;1496;51.404;7.232;2023-02-26T15:35:03;3.50;99.90
2973;DHT22;1496;51.404;7.232;2023-02-26T15:37:30;3.40;99.90
2973;DHT22;1496;51.404;7.232;2023-02-26T15:39:59;3.40;99.90
2973;DHT22;1496;51.404;7.232;2023-02-26T15:42:34;3.30;99.90
2973;DHT22;1496;51.404;7.232;2023-02-26T15:45:05;3.20;99.90
2973;DHT22;1496;51.404;7.232;2023-02-26T15:47:33;3.20;99.90
2973;DHT22;1496;51.404;7.232;2023-02-26T15:50:02;3.10;99.90
2973;DHT22;1496;51.404;7.232;2023-02-26T15:52:31;3.10;99.90
2973;DHT22;1496;51.404;7.232;2023-02-26T15:55:02;3.00;99.90
2973;DHT22;1496;51.404;7.232;2023-02-26T15:57:29;3.00;99.90
2973;DHT22;1496;51.404;7.232;2023-02-26T16:00:09;3.00;99.90
2973;DHT22;1496;51.404;7.232;2023-02-26T16:02:40;2.90;99.90
2973;DHT22;1496;51.404;7.232;2023-02-26T16:05:07;2.90;99.90
2973;DHT22;1496;51.404;7.232;2023-02-26T16:07:35;2.90;99.90
2973;DHT22;1496;51.404;7.232;2023-02-26T16:10:17;2.90;99.90
2973;DHT22;1496;51.404;7.232;2023-02-26T16:12:52;3.00;99.90
2973;DHT22;1496;51.404;7.232;2023-02-26T16:15:31;2.90;99.90
2973;DHT22;1496;51.404;7.232;2023-02-26T16:17:59;2.90;99.90
2973;DHT22;1496;51.404;7.232;2023-02-26T16:20:28;3.00;99.90
2973;DHT22;1496;51.404;7.232;2023-02-26T16:23:38;3.00;99.90
2973;DHT22;1496;51.404;7.232;2023-02-26T16:26:04;2.90;99.90
2973;DHT22;1496;51.404;7.232;2023-02-26T16:28:40;2.90;99.90
2973;DHT22;1496;51.404;7.232;2023-02-26T16:31:21;2.90;99.90
2973;DHT22;1496;51.404;7.232;2023-02-26T16:34:03;2.90;99.90
2973;DHT22;1496;51.404;7.232;2023-02-26T16:36:37;2.90;99.90
2973;DHT22;1496;51.404;7.232;2023-02-26T16:39:16;2.90;99.90
2973;DHT22;1496;51.404;7.232;2023-02-26T16:41:47;2.90;99.90
2973;DHT22;1496;51.404;7.232;2023-02-26T16:46:57;2.80;99.90
2973;DHT22;1496;51.404;7.232;2023-02-26T16:49:39;2.70;99.90
2973;DHT22;1496;51.404;7.232;2023-02-26T16:52:14;2.70;99.90
2973;DHT22;1496;51.404;7.232;2023-02-26T16:55:09;2.70;99.90
2973;DHT22;1496;51.404;7.232;2023-02-26T16:57:41;2.70;99.90
2973;DHT22;1496;51.404;7.232;2023-02-26T17:00:17;2.70;99.90
2973;DHT22;1496;51.404;7.232;2023-02-26T17:03:10;2.80;99.90
2973;DHT22;1496;51.404;7.232;2023-02-26T17:05:41;2.80;99.90
2973;DHT22;1496;51.404;7.232;2023-02-26T17:08:17;2.70;99.90
2973;DHT22;1496;51.404;7.232;2023-02-26T17:10:48;2.80;99.90
2973;DHT22;1496;51.404;7.232;2023-02-26T17:13:23;2.80;99.90
2973;DHT22;1496;51.404;7.232;2023-02-26T17:15:52;2.60;99.90
2973;DHT22;1496;51.404;7.232;2023-02-26T17:18:20;2.60;99.90
2973;DHT22;1496;51.404;7.232;2023-02-26T17:20:47;2.70;99.90
2973;DHT22;1496;51.404;7.232;2023-02-26T17:23:51;2.70;99.90
2973;DHT22;1496;51.404;7.232;2023-02-26T17:26:19;2.90;99.90
2973;DHT22;1496;51.404;7.232;2023-02-26T17:28:45;2.80;99.90
2973;DHT22;1496;51.404;7.232;2023-02-26T17:31:11;2.80;99.90
2973;DHT22;1496;51.404;7.232;2023-02-26T17:33:41;2.70;99.90
2973;DHT22;1496;51.404;7.232;2023-02-26T17:36:13;2.70;99.90
2973;DHT22;1496;51.404;7.232;2023-02-26T17:38:41;2.60;99.90
2973;DHT22;1496;51.404;7.232;2023-02-26T17:41:17;2.60;99.90
2973;DHT22;1496;51.404;7.232;2023-02-26T17:43:45;2.60;99.90
2973;DHT22;1496;51.404;7.232;2023-02-26T17:46:12;2.60;99.90
2973;DHT22;1496;51.404;7.232;2023-02-26T17:48:39;2.60;99.90
2973;DHT22;1496;51.404;7.232;2023-02-26T17:51:06;2.60;99.90
2973;DHT22;1496;51.404;7.232;2023-02-26T17:53:33;2.50;99.90
2973;DHT22;1496;51.404;7.232;2023-02-26T17:56:23;2.60;99.90
2973;DHT22;1496;51.404;7.232;2023-02-26T17:58:51;2.60;99.90
2973;DHT22;1496;51.404;7.232;2023-02-26T18:01:22;2.60;99.90
2973;DHT22;1496;51.404;7.232;2023-02-26T18:03:49;2.50;99.90
2973;DHT22;1496;51.404;7.232;2023-02-26T18:06:16;2.40;99.90
2973;DHT22;1496;51.404;7.232;2023-02-26T18:08:43;2.40;99.90
2973;DHT22;1496;51.404;7.232;2023-02-26T18:11:16;2.30;99.90
2973;DHT22;1496;51.404;7.232;2023-02-26T18:13:45;2.30;99.90
2973;DHT22;1496;51.404;7.232;2023-02-26T18:16:21;2.30;99.90
2973;DHT22;1496;51.404;7.232;2023-02-26T18:18:49;2.20;99.90
2973;DHT22;1496;51.404;7.232;2023-02-26T18:21:16;2.20;99.90
2973;DHT22;1496;51.404;7.232;2023-02-26T18:23:45;2.30;99.90
2973;DHT22;1496;51.404;7.232;2023-02-26T18:26:14;2.30;99.90
2973;DHT22;1496;51.404;7.232;2023-02-26T18:28:42;2.30;99.90
2973;DHT22;1496;51.404;7.232;2023-02-26T18:31:08;2.30;99.90
2973;DHT22;1496;51.404;7.232;2023-02-26T18:33:36;2.30;99.90
2973;DHT22;1496;51.404;7.232;2023-02-26T18:36:05;2.20;99.90
2973;DHT22;1496;51.404;7.232;2023-02-26T18:38:33;2.30;99.90
2973;DHT22;1496;51.404;7.232;2023-02-26T18:40:59;2.20;99.90
2973;DHT22;1496;51.404;7.232;2023-02-26T18:43:27;2.30;99.90
2973;DHT22;1496;51.404;7.232;2023-02-26T18:45:54;2.30;99.90
2973;DHT22;1496;51.404;7.232;2023-02-26T18:48:22;2.40;99.90
2973;DHT22;1496;51.404;7.232;2023-02-26T18:50:49;2.40;99.90
2973;DHT22;1496;51.404;7.232;2023-02-26T18:53:17;2.40;99.90
2973;DHT22;1496;51.404;7.232;2023-02-26T18:55:50;2.40;99.90
2973;DHT22;1496;51.404;7.232;2023-02-26T18:58:18;2.40;99.90
2973;DHT22;1496;51.404;7.232;2023-02-26T19:00:46;2.40;99.90
2973;DHT22;1496;51.404;7.232;2023-02-26T19:03:14;2.40;99.90
2973;DHT22;1496;51.404;7.232;2023-02-26T19:05:40;2.40;99.90
2973;DHT22;1496;51.404;7.232;2023-02-26T19:08:08;2.30;99.90
2973;DHT22;1496;51.404;7.232;2023-02-26T19:10:35;2.40;99.90
2973;DHT22;1496;51.404;7.232;2023-02-26T19:13:03;2.40;99.90
2973;DHT22;1496;51.404;7.232;2023-02-26T19:15:30;2.40;99.90
2973;DHT22;1496;51.404;7.232;2023-02-26T19:17:56;2.40;99.90
2973;DHT22;1496;51.404;7.232;2023-02-26T19:20:22;2.30;99.90
2973;DHT22;1496;51.404;7.232;2023-02-26T19:22:49;2.30;99.90
2973;DHT22;1496;51.404;7.232;2023-02-26T19:25:16;2.30;99.90
2973;DHT22;1496;51.404;7.232;2023-02-26T19:27:50;2.40;99.90
2973;DHT22;1496;51.404;7.232;2023-02-26T19:30:19;2.40;99.90
2973;DHT22;1496;51.404;7.232;2023-02-26T19:32:47;2.40;99.90
2973;DHT22;1496;51.404;7.232;2023-02-26T19:35:15;2.40;99.90
2973;DHT22;1496;51.404;7.232;2023-02-26T19:37:41;2.40;99.90
2973;DHT22;1496;51.404;7.232;2023-02-26T19:40:10;2.40;99.90
2973;DHT22;1496;51.404;7.232;2023-02-26T19:42:42;2.30;99.90
2973;DHT22;1496;51.404;7.232;2023-02-26T19:45:10;2.30;99.90